Time;durP1;ratioP1;P1;durP2;ratioP2;P2;SDS_P1;SDS_P2;PMS_P1;PMS_P2;Temp;Humidity;BMP_temperature;BMP_pressure;BME280_temperature;BME280_humidity;BME280_pressure;Samples;Min_cycle;Max_cycle;Signal;HPM_P1;HPM_P2
2022/11/08 00:01:57;;;;;;;4.50;1.80;;;;;;;;;;5043727;28;20450;-66
2022/11/08 00:04:26;;;;;;;2.97;2.20;;;;;;;;;;5053242;28;20436;-66
2022/11/08 00:15:08;;;;;;;4.60;2.10;;;;;;;;;;5053782;28;20598;-65
2022/11/08 00:17:35;;;;;;;9.77;2.43;;;;;;;;;;5053616;28;20440;-65
2022/11/08 00:20:04;;;;;;;4.27;2.00;;;;;;;;;;5053793;28;20818;-66
2022/11/08 00:22:31;;;;;;;4.60;2.13;;;;;;;;;;5052769;28;20507;-66
2022/11/08 00:24:58;;;;;;;4.23;2.07;;;;;;;;;;5053907;28;20441;-65
2022/11/08 00:27:26;;;;;;;3.37;2.00;;;;;;;;;;5057732;28;20444;-67
2022/11/08 00:29:53;;;;;;;5.77;2.10;;;;;;;;;;5057755;28;20467;-64
2022/11/08 00:32:21;;;;;;;5.93;2.27;;;;;;;;;;5057375;28;20470;-65
2022/11/08 00:34:48;;;;;;;4.33;2.03;;;;;;;;;;5057648;28;20494;-66
2022/11/08 00:37:16;;;;;;;3.20;1.80;;;;;;;;;;5057275;28;20964;-66
2022/11/08 00:39:43;;;;;;;5.27;1.97;;;;;;;;;;5057583;28;20455;-64
2022/11/08 00:42:11;;;;;;;3.83;1.97;;;;;;;;;;5059365;28;20459;-66
2022/11/08 00:44:38;;;;;;;3.67;2.10;;;;;;;;;;5061807;28;20444;-66
2022/11/08 00:47:05;;;;;;;5.33;1.83;;;;;;;;;;5059791;28;20447;-66
2022/11/08 00:49:32;;;;;;;3.33;2.30;;;;;;;;;;5061894;28;20443;-64
2022/11/08 00:51:59;;;;;;;3.83;2.20;;;;;;;;;;5060320;28;20466;-66
2022/11/08 00:54:27;;;;;;;2.90;1.83;;;;;;;;;;5058767;28;20486;-66
2022/11/08 00:56:55;;;;;;;4.93;2.00;;;;;;;;;;5058729;28;20446;-66
2022/11/08 00:59:22;;;;;;;2.87;1.90;;;;;;;;;;5059256;28;20455;-66
2022/11/08 01:01:49;;;;;;;5.13;2.07;;;;;;;;;;5058449;28;20474;-66
2022/11/08 01:04:17;;;;;;;3.57;1.63;;;;;;;;;;5058774;28;20439;-66
2022/11/08 01:06:44;;;;;;;4.67;2.37;;;;;;;;;;5058105;28;20446;-66
2022/11/08 01:09:11;;;;;;;8.53;2.00;;;;;;;;;;5058225;28;20946;-66
2022/11/08 01:11:44;;;;;;;4.53;2.07;;;;;;;;;;5058089;28;20471;-65
2022/11/08 01:14:11;;;;;;;3.93;2.43;;;;;;;;;;5060073;28;20982;-66
2022/11/08 01:16:38;;;;;;;8.23;2.27;;;;;;;;;;5059993;28;20505;-65
2022/11/08 01:19:06;;;;;;;3.60;2.20;;;;;;;;;;5058296;28;20456;-65
2022/11/08 01:21:33;;;;;;;2.67;1.97;;;;;;;;;;5058143;28;20487;-66
2022/11/08 01:24:00;;;;;;;6.27;2.20;;;;;;;;;;5056841;28;20422;-65
2022/11/08 01:26:28;;;;;;;4.73;2.17;;;;;;;;;;5056425;28;20447;-66
2022/11/08 01:28:57;;;;;;;3.20;1.87;;;;;;;;;;5056437;28;20447;-66
2022/11/08 01:31:25;;;;;;;2.40;1.63;;;;;;;;;;5056677;28;20452;-66
2022/11/08 01:33:52;;;;;;;5.30;2.50;;;;;;;;;;5056580;28;20462;-66
2022/11/08 01:36:21;;;;;;;2.60;2.23;;;;;;;;;;5057336;28;20501;-67
2022/11/08 01:38:48;;;;;;;3.20;2.30;;;;;;;;;;5055866;28;20446;-65
2022/11/08 01:41:16;;;;;;;4.90;2.40;;;;;;;;;;5056694;28;20440;-66
2022/11/08 01:43:44;;;;;;;5.23;2.10;;;;;;;;;;5058739;28;20817;-66
2022/11/08 01:46:30;;;;;;;4.53;2.37;;;;;;;;;;5058202;28;20445;-66
2022/11/08 01:49:01;;;;;;;5.00;2.60;;;;;;;;;;5058504;28;20446;-66
2022/11/08 01:51:31;;;;;;;4.83;2.30;;;;;;;;;;5059339;28;20471;-66
2022/11/08 01:53:59;;;;;;;4.63;2.30;;;;;;;;;;5058780;28;20441;-66
2022/11/08 01:56:27;;;;;;;5.17;2.30;;;;;;;;;;5057298;28;20521;-66
2022/11/08 01:58:55;;;;;;;9.27;2.83;;;;;;;;;;5055856;28;20497;-66
2022/11/08 02:01:22;;;;;;;6.03;2.37;;;;;;;;;;5055807;28;20827;-66
2022/11/08 02:03:49;;;;;;;7.23;2.60;;;;;;;;;;5055762;28;20438;-65
2022/11/08 02:06:18;;;;;;;2.50;2.07;;;;;;;;;;5055514;28;20445;-66
2022/11/08 02:08:45;;;;;;;3.57;2.93;;;;;;;;;;5057389;28;20488;-66
2022/11/08 02:11:14;;;;;;;4.43;3.20;;;;;;;;;;5056835;28;20452;-66
2022/11/08 02:13:41;;;;;;;5.40;2.73;;;;;;;;;;5055881;28;20447;-66
2022/11/08 02:16:11;;;;;;;4.80;2.23;;;;;;;;;;5055365;28;20478;-66
2022/11/08 02:18:38;;;;;;;6.37;2.20;;;;;;;;;;5055216;28;20451;-66
2022/11/08 02:21:09;;;;;;;5.87;3.00;;;;;;;;;;5055366;28;20446;-66
2022/11/08 02:23:45;;;;;;;8.13;3.10;;;;;;;;;;5055595;28;20463;-66
2022/11/08 02:26:13;;;;;;;5.83;2.83;;;;;;;;;;5055933;28;20431;-66
2022/11/08 02:28:40;;;;;;;7.03;2.47;;;;;;;;;;5056069;28;20494;-66
2022/11/08 02:31:08;;;;;;;6.57;2.83;;;;;;;;;;5056180;28;20450;-66
2022/11/08 02:33:35;;;;;;;5.30;2.40;;;;;;;;;;5056135;28;20446;-65
2022/11/08 02:36:03;;;;;;;6.37;2.50;;;;;;;;;;5055740;28;20483;-65
2022/11/08 02:38:30;;;;;;;5.80;2.70;;;;;;;;;;5055377;28;20454;-66
2022/11/08 02:40:59;;;;;;;3.63;2.57;;;;;;;;;;5055227;28;20458;-65
2022/11/08 02:43:26;;;;;;;7.83;2.80;;;;;;;;;;5054937;28;20477;-66
2022/11/08 02:45:53;;;;;;;4.07;2.40;;;;;;;;;;5055408;28;20449;-66
2022/11/08 02:48:20;;;;;;;7.00;2.87;;;;;;;;;;5055808;28;20453;-66
2022/11/08 02:50:47;;;;;;;3.97;2.63;;;;;;;;;;5055065;28;20457;-66
2022/11/08 02:53:15;;;;;;;7.53;2.73;;;;;;;;;;5054699;28;20461;-66
2022/11/08 02:55:42;;;;;;;4.37;2.53;;;;;;;;;;5055521;28;20556;-66
2022/11/08 02:58:10;;;;;;;5.47;2.80;;;;;;;;;;5055468;28;20446;-67
2022/11/08 03:00:38;;;;;;;6.13;2.90;;;;;;;;;;5054419;28;20446;-66
2022/11/08 03:03:05;;;;;;;7.33;3.00;;;;;;;;;;5054131;28;21001;-65
2022/11/08 03:05:32;;;;;;;4.85;2.85;;;;;;;;;;5053702;28;20960;-65
2022/11/08 03:07:59;;;;;;;6.10;3.37;;;;;;;;;;5053661;28;20682;-66
2022/11/08 03:10:27;;;;;;;4.57;2.60;;;;;;;;;;5053831;28;20938;-66
2022/11/08 03:12:55;;;;;;;3.83;2.63;;;;;;;;;;5053972;28;20461;-65
2022/11/08 03:15:24;;;;;;;9.40;3.07;;;;;;;;;;5056853;28;20496;-66
2022/11/08 03:17:52;;;;;;;7.93;2.67;;;;;;;;;;5059577;28;20454;-66
2022/11/08 03:20:19;;;;;;;6.17;2.90;;;;;;;;;;5059564;28;20812;-65
2022/11/08 03:22:46;;;;;;;5.80;2.70;;;;;;;;;;5059838;28;20477;-66
2022/11/08 03:25:14;;;;;;;6.97;2.97;;;;;;;;;;5059648;28;20473;-66
2022/11/08 03:27:41;;;;;;;5.38;2.83;;;;;;;;;;5058879;28;20210;-66
2022/11/08 03:30:08;;;;;;;5.45;2.72;;;;;;;;;;5058243;28;20202;-66
2022/11/08 03:32:36;;;;;;;6.18;3.40;;;;;;;;;;5053459;28;20227;-66
2022/11/08 03:35:04;;;;;;;7.30;2.90;;;;;;;;;;5053214;28;20725;-65
2022/11/08 03:37:31;;;;;;;4.13;2.60;;;;;;;;;;5053493;28;20215;-66
2022/11/08 03:39:58;;;;;;;4.53;2.60;;;;;;;;;;5053418;28;20445;-66
2022/11/08 03:42:25;;;;;;;6.20;2.97;;;;;;;;;;5053400;28;20469;-66
2022/11/08 03:44:52;;;;;;;3.13;2.83;;;;;;;;;;5053073;28;20442;-66
2022/11/08 03:47:19;;;;;;;8.30;2.77;;;;;;;;;;5053019;28;20955;-66
2022/11/08 03:49:47;;;;;;;6.53;3.33;;;;;;;;;;5052848;28;20957;-66
2022/11/08 03:52:14;;;;;;;5.33;3.10;;;;;;;;;;5053106;28;20478;-66
2022/11/08 03:54:41;;;;;;;4.95;2.75;;;;;;;;;;5053156;28;20441;-66
2022/11/08 03:57:08;;;;;;;3.78;2.97;;;;;;;;;;5053291;28;20203;-66
2022/11/08 03:59:35;;;;;;;8.73;2.80;;;;;;;;;;5053501;28;20210;-65
2022/11/08 04:02:02;;;;;;;5.93;2.90;;;;;;;;;;5059862;28;20229;-66
2022/11/08 04:04:30;;;;;;;9.18;3.08;;;;;;;;;;5055385;28;20445;-65
2022/11/08 04:10:31;;;;;;;6.37;3.20;;;;;;;;;;5092557;27;21057;-66
2022/11/08 04:15:44;;;;;;;4.30;3.75;;;;;;;;;;5090936;28;20474;-66
2022/11/08 04:23:40;;;;;;;4.57;3.10;;;;;;;;;;5050862;28;20449;-66
2022/11/08 04:26:10;;;;;;;4.05;3.03;;;;;;;;;;5050577;28;20439;-66
2022/11/08 04:28:37;;;;;;;4.10;2.53;;;;;;;;;;5050220;28;20234;-66
2022/11/08 04:31:06;;;;;;;4.78;3.05;;;;;;;;;;5049812;28;20472;-67
2022/11/08 04:33:33;;;;;;;4.40;3.00;;;;;;;;;;5050478;28;20198;-67
2022/11/08 04:36:02;;;;;;;6.47;2.93;;;;;;;;;;5050162;28;20445;-67
2022/11/08 04:38:30;;;;;;;3.58;2.60;;;;;;;;;;5049934;28;20457;-67
2022/11/08 04:41:01;;;;;;;5.03;3.63;;;;;;;;;;5050086;28;20229;-66
2022/11/08 04:43:30;;;;;;;5.87;3.27;;;;;;;;;;5050233;28;20441;-66
2022/11/08 04:46:01;;;;;;;6.93;2.40;;;;;;;;;;5050187;28;20475;-66
2022/11/08 04:48:28;;;;;;;6.20;3.23;;;;;;;;;;5049752;28;20202;-65
2022/11/08 04:50:55;;;;;;;3.10;2.60;;;;;;;;;;5049748;28;20453;-66
2022/11/08 04:53:22;;;;;;;3.00;2.30;;;;;;;;;;5050150;28;20454;-66
2022/11/08 04:55:49;;;;;;;5.67;2.60;;;;;;;;;;5049519;28;20946;-67
2022/11/08 04:58:16;;;;;;;4.37;2.87;;;;;;;;;;5050346;28;20442;-67
2022/11/08 05:00:45;;;;;;;4.20;2.47;;;;;;;;;;5049638;28;20442;-64
2022/11/08 05:03:12;;;;;;;5.93;2.93;;;;;;;;;;5049713;28;20450;-64
2022/11/08 05:05:39;;;;;;;5.00;2.90;;;;;;;;;;5050103;28;20450;-65
2022/11/08 05:08:06;;;;;;;5.77;3.00;;;;;;;;;;5050031;28;20461;-66
2022/11/08 05:10:33;;;;;;;4.90;2.80;;;;;;;;;;5049709;28;20508;-66
2022/11/08 05:13:00;;;;;;;3.30;2.77;;;;;;;;;;5050896;28;20478;-65
2022/11/08 05:15:27;;;;;;;8.40;2.90;;;;;;;;;;5049784;28;20454;-66
2022/11/08 05:17:56;;;;;;;7.17;2.87;;;;;;;;;;5049853;28;20442;-66
2022/11/08 05:23:25;;;;;;;5.07;2.40;;;;;;;;;;5036574;28;20567;-68
2022/11/08 05:25:53;;;;;;;3.43;2.27;;;;;;;;;;5036424;28;20445;-67
2022/11/08 05:28:20;;;;;;;4.67;3.00;;;;;;;;;;5036273;28;20447;-66
2022/11/08 05:30:52;;;;;;;4.40;2.40;;;;;;;;;;5036222;28;20430;-68
2022/11/08 05:33:21;;;;;;;6.60;2.80;;;;;;;;;;5035927;28;20953;-66
2022/11/08 05:35:48;;;;;;;6.00;2.80;;;;;;;;;;5036382;28;20450;-65
2022/11/08 05:38:15;;;;;;;4.70;2.33;;;;;;;;;;5035721;28;20449;-66
2022/11/08 05:40:42;;;;;;;4.63;2.20;;;;;;;;;;5035582;28;20950;-67
2022/11/08 05:43:10;;;;;;;5.77;2.53;;;;;;;;;;5035897;28;20823;-66
2022/11/08 05:45:37;;;;;;;8.50;3.30;;;;;;;;;;5035903;28;20768;-66
2022/11/08 05:48:04;;;;;;;3.77;2.43;;;;;;;;;;5036039;28;20453;-67
2022/11/08 05:50:33;;;;;;;5.23;2.60;;;;;;;;;;5035642;28;20478;-66
2022/11/08 05:53:00;;;;;;;3.60;2.60;;;;;;;;;;5035562;28;20463;-66
2022/11/08 05:55:27;;;;;;;11.10;3.50;;;;;;;;;;5036586;28;20466;-66
2022/11/08 05:57:54;;;;;;;6.77;3.30;;;;;;;;;;5035940;28;20450;-66
2022/11/08 06:00:22;;;;;;;5.53;3.23;;;;;;;;;;5035882;28;20438;-65
2022/11/08 06:02:49;;;;;;;5.37;2.70;;;;;;;;;;5036153;28;20473;-69
2022/11/08 06:05:16;;;;;;;5.90;2.73;;;;;;;;;;5036449;28;20461;-66
2022/11/08 06:07:44;;;;;;;3.37;3.07;;;;;;;;;;5035647;28;20960;-66
2022/11/08 06:10:11;;;;;;;4.27;3.17;;;;;;;;;;5036054;28;20487;-66
2022/11/08 06:12:38;;;;;;;4.47;3.27;;;;;;;;;;5037234;28;20463;-67
2022/11/08 06:15:06;;;;;;;3.50;3.20;;;;;;;;;;5038324;28;20445;-67
2022/11/08 06:17:33;;;;;;;6.77;4.33;;;;;;;;;;5037820;28;20439;-67
2022/11/08 06:20:00;;;;;;;3.77;3.47;;;;;;;;;;5038767;28;20438;-66
2022/11/08 06:22:31;;;;;;;9.93;4.40;;;;;;;;;;5037249;28;20510;-67
2022/11/08 06:24:59;;;;;;;5.63;3.97;;;;;;;;;;5037391;28;20462;-67
2022/11/08 06:27:26;;;;;;;6.03;4.57;;;;;;;;;;5037914;28;20210;-68
2022/11/08 06:29:54;;;;;;;10.33;3.87;;;;;;;;;;5038473;28;20558;-68
2022/11/08 06:32:21;;;;;;;9.47;4.90;;;;;;;;;;5037928;28;20471;-68
2022/11/08 06:34:48;;;;;;;7.40;4.50;;;;;;;;;;5036341;28;20456;-67
2022/11/08 06:37:16;;;;;;;8.80;4.10;;;;;;;;;;5035961;28;20450;-67
2022/11/08 06:39:43;;;;;;;9.10;4.13;;;;;;;;;;5035270;28;20455;-66
2022/11/08 06:42:13;;;;;;;4.57;3.97;;;;;;;;;;5035700;28;20469;-67
2022/11/08 06:44:40;;;;;;;7.85;3.50;;;;;;;;;;5036068;28;20450;-67
2022/11/08 06:47:07;;;;;;;7.80;4.68;;;;;;;;;;5036158;28;20275;-67
2022/11/08 06:49:35;;;;;;;5.97;3.40;;;;;;;;;;5034975;28;20225;-68
2022/11/08 06:52:03;;;;;;;9.20;3.70;;;;;;;;;;5035826;28;20891;-67
2022/11/08 06:54:30;;;;;;;7.00;3.90;;;;;;;;;;5035200;28;20214;-67
2022/11/08 06:56:59;;;;;;;5.63;4.10;;;;;;;;;;5035140;28;20228;-67
2022/11/08 06:59:27;;;;;;;9.37;4.70;;;;;;;;;;5034719;28;20446;-67
2022/11/08 07:01:54;;;;;;;7.87;4.70;;;;;;;;;;5034838;28;20479;-66
2022/11/08 07:04:22;;;;;;;8.88;3.80;;;;;;;;;;5035151;28;20451;-66
2022/11/08 07:06:49;;;;;;;7.57;3.95;;;;;;;;;;5034832;28;20633;-67
2022/11/08 07:09:16;;;;;;;6.27;3.57;;;;;;;;;;5034648;28;20220;-67
2022/11/08 07:11:43;;;;;;;5.10;4.07;;;;;;;;;;5034409;28;20476;-67
2022/11/08 07:14:10;;;;;;;7.10;5.13;;;;;;;;;;5034777;28;20204;-67
2022/11/08 07:16:38;;;;;;;7.00;3.87;;;;;;;;;;5034316;28;20957;-68
2022/11/08 07:19:05;;;;;;;5.90;4.00;;;;;;;;;;5034776;28;20446;-68
2022/11/08 07:21:32;;;;;;;6.80;3.93;;;;;;;;;;5034671;28;20487;-68
2022/11/08 07:23:59;;;;;;;4.20;3.13;;;;;;;;;;5034771;28;20526;-68
2022/11/08 07:26:27;;;;;;;6.47;3.67;;;;;;;;;;5034471;28;20453;-68
2022/11/08 07:28:54;;;;;;;6.40;4.60;;;;;;;;;;5034242;28;20452;-67
2022/11/08 07:31:22;;;;;;;10.43;3.90;;;;;;;;;;5033672;28;20459;-66
2022/11/08 07:33:51;;;;;;;5.33;3.60;;;;;;;;;;5034213;28;20454;-66
2022/11/08 07:36:18;;;;;;;7.03;3.60;;;;;;;;;;5034011;28;20455;-67
2022/11/08 07:38:45;;;;;;;6.53;3.40;;;;;;;;;;5033869;28;20966;-67
2022/11/08 07:41:12;;;;;;;8.53;4.10;;;;;;;;;;5033639;28;20482;-68
2022/11/08 07:43:39;;;;;;;9.70;4.13;;;;;;;;;;5033444;28;20481;-67
2022/11/08 07:46:06;;;;;;;6.03;3.70;;;;;;;;;;5033820;28;20462;-68
2022/11/08 07:48:34;;;;;;;5.70;4.03;;;;;;;;;;5034265;28;20954;-66
2022/11/08 07:51:03;;;;;;;4.30;3.57;;;;;;;;;;5033658;28;20478;-68
2022/11/08 07:53:30;;;;;;;7.00;4.03;;;;;;;;;;5033407;28;20443;-67
2022/11/08 07:55:57;;;;;;;5.13;4.43;;;;;;;;;;5033293;28;20450;-68
2022/11/08 07:58:24;;;;;;;9.93;3.60;;;;;;;;;;5033938;28;20451;-67
2022/11/08 08:00:51;;;;;;;5.93;3.97;;;;;;;;;;5033742;28;20445;-67
2022/11/08 08:03:18;;;;;;;5.63;4.40;;;;;;;;;;5033878;28;20482;-67
2022/11/08 08:05:46;;;;;;;6.33;3.60;;;;;;;;;;5033566;28;20450;-68
2022/11/08 08:08:14;;;;;;;6.10;3.80;;;;;;;;;;5033523;28;20443;-68
2022/11/08 08:10:41;;;;;;;10.43;3.70;;;;;;;;;;5033435;28;20490;-67
2022/11/08 08:13:09;;;;;;;5.53;3.47;;;;;;;;;;5033027;28;20983;-67
2022/11/08 08:15:36;;;;;;;7.00;4.27;;;;;;;;;;5033783;28;20450;-67
2022/11/08 08:18:04;;;;;;;4.13;3.03;;;;;;;;;;5033210;28;20532;-68
2022/11/08 08:20:32;;;;;;;6.30;3.50;;;;;;;;;;5034026;28;20437;-68
2022/11/08 08:22:59;;;;;;;12.70;3.07;;;;;;;;;;5033193;28;20489;-68
2022/11/08 08:25:29;;;;;;;4.53;2.93;;;;;;;;;;5033379;28;20448;-67
2022/11/08 08:27:58;;;;;;;3.97;2.80;;;;;;;;;;5033642;28;20464;-68
2022/11/08 08:30:26;;;;;;;4.00;3.10;;;;;;;;;;5033329;28;20546;-67
2022/11/08 08:32:53;;;;;;;4.00;2.97;;;;;;;;;;5032866;28;21007;-69
2022/11/08 08:35:20;;;;;;;4.10;2.60;;;;;;;;;;5033118;28;20921;-69
2022/11/08 08:37:47;;;;;;;6.13;3.00;;;;;;;;;;5033314;28;20454;-68
2022/11/08 08:40:14;;;;;;;3.83;2.60;;;;;;;;;;5033286;28;20806;-67
2022/11/08 08:42:42;;;;;;;12.53;2.53;;;;;;;;;;5033240;28;20468;-68
2022/11/08 08:45:10;;;;;;;3.30;2.47;;;;;;;;;;5033221;28;20530;-67
2022/11/08 08:47:37;;;;;;;3.47;2.50;;;;;;;;;;5033287;28;20456;-67
2022/11/08 08:50:04;;;;;;;2.73;2.20;;;;;;;;;;5033837;28;20993;-68
2022/11/08 08:52:31;;;;;;;4.63;2.83;;;;;;;;;;5033089;28;20465;-68
2022/11/08 08:54:58;;;;;;;4.00;2.47;;;;;;;;;;5032831;28;20464;-67
2022/11/08 08:57:26;;;;;;;3.20;2.13;;;;;;;;;;5037658;28;20452;-67
2022/11/08 08:59:54;;;;;;;6.43;2.53;;;;;;;;;;5037447;28;20953;-67
2022/11/08 09:02:21;;;;;;;3.23;2.20;;;;;;;;;;5037447;28;20467;-67
2022/11/08 09:04:48;;;;;;;5.80;2.23;;;;;;;;;;5037303;28;20449;-67
2022/11/08 09:07:15;;;;;;;6.17;2.30;;;;;;;;;;5036919;28;20441;-67
2022/11/08 09:09:42;;;;;;;6.30;2.30;;;;;;;;;;5036560;28;20936;-67
2022/11/08 09:12:09;;;;;;;3.20;2.50;;;;;;;;;;5036071;28;20979;-68
2022/11/08 09:14:36;;;;;;;2.70;2.00;;;;;;;;;;5036420;28;20963;-67
2022/11/08 09:17:05;;;;;;;2.97;2.03;;;;;;;;;;5036390;28;21048;-66
2022/11/08 09:19:32;;;;;;;7.53;2.67;;;;;;;;;;5035804;28;20963;-68
2022/11/08 09:21:59;;;;;;;6.33;2.30;;;;;;;;;;5035816;28;20479;-67
2022/11/08 09:24:26;;;;;;;3.07;2.23;;;;;;;;;;5036810;28;20468;-67
2022/11/08 09:26:53;;;;;;;3.33;1.87;;;;;;;;;;5036578;28;20445;-67
2022/11/08 09:29:20;;;;;;;3.93;2.50;;;;;;;;;;5036648;28;20476;-67
2022/11/08 09:31:48;;;;;;;4.60;1.83;;;;;;;;;;5036321;28;20841;-67
2022/11/08 09:34:17;;;;;;;2.27;1.70;;;;;;;;;;5036672;28;20507;-67
2022/11/08 09:36:44;;;;;;;3.53;2.00;;;;;;;;;;5036235;28;20452;-68
2022/11/08 09:39:11;;;;;;;5.77;2.50;;;;;;;;;;5036794;28;20823;-68
2022/11/08 09:41:51;;;;;;;2.03;1.80;;;;;;;;;;5036836;28;20461;-67
2022/11/08 09:44:36;;;;;;;3.67;1.73;;;;;;;;;;5036572;28;20517;-68
2022/11/08 09:47:05;;;;;;;2.10;1.53;;;;;;;;;;5036338;28;20429;-67
2022/11/08 09:49:36;;;;;;;3.17;1.63;;;;;;;;;;5036085;28;20497;-67
2022/11/08 09:52:04;;;;;;;3.33;1.40;;;;;;;;;;5035837;28;20997;-67
2022/11/08 09:54:33;;;;;;;2.03;1.40;;;;;;;;;;5035808;28;20459;-68
2022/11/08 09:57:03;;;;;;;4.00;1.80;;;;;;;;;;5035424;28;20502;-67
2022/11/08 09:59:34;;;;;;;6.00;1.43;;;;;;;;;;5035485;28;20536;-67
2022/11/08 10:02:01;;;;;;;4.40;1.90;;;;;;;;;;5035668;28;20462;-67
2022/11/08 10:04:30;;;;;;;2.70;1.27;;;;;;;;;;5034954;28;20442;-68
2022/11/08 10:07:14;;;;;;;9.70;2.13;;;;;;;;;;5035109;28;20449;-67
2022/11/08 10:09:49;;;;;;;2.83;1.20;;;;;;;;;;5034991;28;20920;-67
2022/11/08 10:12:20;;;;;;;5.07;1.80;;;;;;;;;;5035432;28;20839;-67
2022/11/08 10:14:53;;;;;;;2.60;1.83;;;;;;;;;;5034982;28;20436;-66
2022/11/08 10:17:30;;;;;;;2.23;1.83;;;;;;;;;;5035957;28;20448;-66
2022/11/08 10:20:02;;;;;;;3.30;1.87;;;;;;;;;;5036138;28;20816;-67
2022/11/08 10:22:32;;;;;;;5.83;1.97;;;;;;;;;;5080612;22;20568;-66
2022/11/08 10:25:01;;;;;;;3.20;1.60;;;;;;;;;;5075819;28;20450;-66
2022/11/08 10:27:30;;;;;;;2.50;1.47;;;;;;;;;;5075900;28;20451;-65
2022/11/08 10:29:59;;;;;;;8.00;1.60;;;;;;;;;;5078745;28;20448;-66
2022/11/08 10:32:26;;;;;;;2.90;1.57;;;;;;;;;;5077853;28;20596;-66
2022/11/08 10:34:55;;;;;;;7.23;1.60;;;;;;;;;;5076336;28;20449;-66
2022/11/08 10:37:23;;;;;;;2.97;1.73;;;;;;;;;;5077107;28;20449;-65
2022/11/08 10:39:55;;;;;;;4.47;1.60;;;;;;;;;;5075784;28;20482;-67
2022/11/08 10:42:26;;;;;;;3.93;1.87;;;;;;;;;;5076569;28;20469;-65
2022/11/08 10:44:53;;;;;;;3.47;2.30;;;;;;;;;;5074991;28;20425;-66
2022/11/08 10:47:22;;;;;;;2.77;1.70;;;;;;;;;;5074339;28;20452;-65
2022/11/08 10:49:49;;;;;;;3.60;2.00;;;;;;;;;;5074475;28;20452;-65
2022/11/08 10:52:22;;;;;;;6.90;1.60;;;;;;;;;;5074108;28;20484;-65
2022/11/08 10:54:50;;;;;;;3.67;1.20;;;;;;;;;;5074241;28;20437;-66
2022/11/08 10:57:23;;;;;;;2.30;1.40;;;;;;;;;;5074069;28;20449;-65
2022/11/08 10:59:50;;;;;;;2.30;1.67;;;;;;;;;;5074841;28;20424;-66
2022/11/08 11:02:22;;;;;;;3.17;1.50;;;;;;;;;;5073837;28;20975;-66
2022/11/08 11:04:49;;;;;;;1.63;1.23;;;;;;;;;;5074147;28;20479;-66
2022/11/08 11:07:28;;;;;;;4.50;1.77;;;;;;;;;;5073788;28;20540;-66
2022/11/08 11:09:55;;;;;;;7.73;2.10;;;;;;;;;;5073379;28;21054;-66
2022/11/08 11:12:23;;;;;;;2.53;1.53;;;;;;;;;;5074010;28;20480;-66
2022/11/08 11:14:57;;;;;;;4.73;1.40;;;;;;;;;;5073736;28;20450;-65
2022/11/08 11:17:27;;;;;;;3.30;1.50;;;;;;;;;;5073860;28;20541;-66
2022/11/08 11:19:55;;;;;;;2.87;1.60;;;;;;;;;;5073096;28;20442;-66
2022/11/08 11:22:26;;;;;;;2.07;1.70;;;;;;;;;;5072808;28;20868;-65
2022/11/08 11:24:53;;;;;;;2.57;1.50;;;;;;;;;;5073136;28;20445;-66
2022/11/08 11:27:22;;;;;;;1.90;1.13;;;;;;;;;;5074669;28;20532;-66
2022/11/08 11:29:50;;;;;;;2.83;1.47;;;;;;;;;;5073925;28;20461;-66
2022/11/08 11:32:25;;;;;;;5.00;1.87;;;;;;;;;;5074626;28;20491;-66
2022/11/08 11:34:53;;;;;;;3.17;1.57;;;;;;;;;;5078950;28;20899;-65
2022/11/08 11:37:26;;;;;;;3.87;1.40;;;;;;;;;;5075361;28;20445;-66
2022/11/08 11:39:58;;;;;;;3.43;1.57;;;;;;;;;;5074268;28;20430;-64
2022/11/08 11:42:29;;;;;;;3.13;1.47;;;;;;;;;;5074377;28;20474;-65
2022/11/08 11:45:03;;;;;;;4.00;2.00;;;;;;;;;;5073876;28;20801;-65
2022/11/08 11:47:31;;;;;;;2.30;1.50;;;;;;;;;;5073262;28;20899;-63
2022/11/08 11:50:01;;;;;;;1.73;1.30;;;;;;;;;;5074284;28;20456;-66
2022/11/08 11:52:28;;;;;;;1.57;1.20;;;;;;;;;;5073410;28;20481;-65
2022/11/08 11:54:55;;;;;;;3.77;1.60;;;;;;;;;;5073436;28;20451;-65
2022/11/08 11:57:24;;;;;;;2.23;2.03;;;;;;;;;;5073583;28;20528;-66
2022/11/08 12:00:00;;;;;;;5.17;2.07;;;;;;;;;;5073698;28;20441;-66
2022/11/08 12:02:37;;;;;;;2.47;1.60;;;;;;;;;;5073357;28;21046;-66
2022/11/08 12:05:20;;;;;;;2.67;1.40;;;;;;;;;;5073252;28;20443;-65
2022/11/08 12:07:50;;;;;;;3.40;1.33;;;;;;;;;;5073613;28;20936;-67
2022/11/08 12:10:21;;;;;;;2.67;1.40;;;;;;;;;;5073871;28;20449;-65
2022/11/08 12:12:54;;;;;;;1.63;1.20;;;;;;;;;;5073856;28;20466;-65
2022/11/08 12:15:24;;;;;;;2.40;1.37;;;;;;;;;;5073755;28;20445;-66
2022/11/08 12:18:15;;;;;;;2.77;1.20;;;;;;;;;;5072690;28;20520;-66
2022/11/08 12:20:50;;;;;;;1.93;1.20;;;;;;;;;;5052984;28;20977;-66
2022/11/08 12:23:24;;;;;;;1.50;1.40;;;;;;;;;;5072483;28;20478;-66
2022/11/08 12:25:56;;;;;;;2.97;1.83;;;;;;;;;;5073234;28;20434;-66
2022/11/08 12:28:36;;;;;;;1.63;1.40;;;;;;;;;;5073343;28;20426;-66
2022/11/08 12:31:14;;;;;;;2.33;1.20;;;;;;;;;;5074402;28;20996;-66
2022/11/08 12:33:46;;;;;;;5.40;2.17;;;;;;;;;;5076989;28;20516;-66
2022/11/08 12:36:18;;;;;;;1.30;1.20;;;;;;;;;;5076632;28;20776;-66
2022/11/08 12:38:54;;;;;;;1.60;1.10;;;;;;;;;;5075958;28;20554;-66
2022/11/08 12:41:24;;;;;;;2.43;1.53;;;;;;;;;;5076326;28;20441;-66
2022/11/08 12:44:12;;;;;;;2.23;1.17;;;;;;;;;;5076632;28;20452;-66
2022/11/08 12:46:44;;;;;;;2.37;1.57;;;;;;;;;;5076272;28;20540;-66
2022/11/08 12:49:19;;;;;;;4.80;1.30;;;;;;;;;;5076534;28;20424;-66
2022/11/08 12:51:55;;;;;;;2.47;1.10;;;;;;;;;;5075875;28;20859;-66
2022/11/08 12:54:26;;;;;;;1.47;1.07;;;;;;;;;;5075952;28;20910;-67
2022/11/08 12:56:54;;;;;;;10.63;2.80;;;;;;;;;;5076163;28;20426;-66
2022/11/08 12:59:24;;;;;;;2.70;1.53;;;;;;;;;;5076349;28;20530;-66
2022/11/08 13:01:52;;;;;;;2.23;1.30;;;;;;;;;;5076196;28;20856;-65
2022/11/08 13:04:36;;;;;;;6.20;2.47;;;;;;;;;;5076497;28;20441;-67
2022/11/08 13:07:09;;;;;;;2.40;1.40;;;;;;;;;;5076280;28;20421;-64
2022/11/08 13:09:40;;;;;;;2.23;1.40;;;;;;;;;;5076276;28;20448;-65
2022/11/08 13:12:13;;;;;;;2.47;1.60;;;;;;;;;;5076120;28;20489;-63
2022/11/08 13:14:41;;;;;;;3.90;1.77;;;;;;;;;;5075936;28;20430;-65
2022/11/08 13:17:15;;;;;;;3.07;1.77;;;;;;;;;;5076040;28;20446;-65
2022/11/08 13:19:56;;;;;;;4.37;1.47;;;;;;;;;;5076181;28;20441;-66
2022/11/08 13:23:00;;;;;;;2.33;1.67;;;;;;;;;;5075313;28;20492;-67
2022/11/08 13:25:34;;;;;;;1.80;1.20;;;;;;;;;;5078259;28;20897;-67
2022/11/08 13:28:01;;;;;;;1.90;1.30;;;;;;;;;;5081796;28;20448;-66
2022/11/08 13:30:39;;;;;;;2.53;1.40;;;;;;;;;;5075809;28;20513;-65
2022/11/08 13:33:15;;;;;;;3.97;1.80;;;;;;;;;;5075634;28;20464;-65
2022/11/08 13:35:46;;;;;;;1.67;1.17;;;;;;;;;;5075954;28;20464;-66
2022/11/08 13:38:20;;;;;;;5.03;1.40;;;;;;;;;;5075939;28;20441;-68
2022/11/08 13:41:01;;;;;;;2.07;1.33;;;;;;;;;;5075157;28;20449;-65
2022/11/08 13:43:29;;;;;;;5.90;1.30;;;;;;;;;;5074967;28;20457;-66
2022/11/08 13:45:57;;;;;;;3.37;1.57;;;;;;;;;;5075198;28;20442;-66
2022/11/08 13:48:42;;;;;;;1.60;1.10;;;;;;;;;;5075137;28;20465;-66
2022/11/08 13:51:33;;;;;;;1.83;1.30;;;;;;;;;;5075084;28;20472;-66
2022/11/08 13:54:01;;;;;;;2.37;2.00;;;;;;;;;;5055320;28;20449;-66
2022/11/08 13:56:46;;;;;;;1.90;1.10;;;;;;;;;;5074753;28;20816;-66
2022/11/08 13:59:46;;;;;;;2.03;1.30;;;;;;;;;;5075481;28;20445;-66
2022/11/08 14:02:29;;;;;;;1.70;1.20;;;;;;;;;;5075189;28;20453;-68
2022/11/08 14:05:08;;;;;;;2.00;1.20;;;;;;;;;;5075081;28;20422;-65
2022/11/08 14:07:39;;;;;;;2.93;1.50;;;;;;;;;;5074385;28;20788;-65
2022/11/08 14:10:12;;;;;;;2.30;1.17;;;;;;;;;;5075343;28;20436;-66
2022/11/08 14:12:43;;;;;;;1.33;1.23;;;;;;;;;;5074730;28;20507;-66
2022/11/08 14:15:17;;;;;;;3.23;1.40;;;;;;;;;;5074834;28;20442;-66
2022/11/08 14:17:46;;;;;;;2.80;1.20;;;;;;;;;;5074742;28;20512;-67
2022/11/08 14:20:18;;;;;;;2.40;1.20;;;;;;;;;;5075836;28;20553;-66
2022/11/08 14:22:46;;;;;;;2.67;1.10;;;;;;;;;;5074196;28;20480;-66
2022/11/08 14:25:19;;;;;;;1.70;1.40;;;;;;;;;;5074455;28;20452;-65
2022/11/08 14:27:46;;;;;;;2.57;1.20;;;;;;;;;;5074640;28;20428;-67
2022/11/08 14:30:15;;;;;;;1.33;1.20;;;;;;;;;;5074448;28;20455;-66
2022/11/08 14:32:42;;;;;;;2.27;1.50;;;;;;;;;;5074104;28;20495;-66
2022/11/08 14:35:14;;;;;;;3.40;1.70;;;;;;;;;;5074357;28;20456;-65
2022/11/08 14:37:43;;;;;;;1.30;1.00;;;;;;;;;;5074782;28;20449;-66
2022/11/08 14:40:18;;;;;;;3.50;1.20;;;;;;;;;;5073996;28;20505;-64
2022/11/08 14:42:45;;;;;;;1.70;1.17;;;;;;;;;;5073158;28;20574;-66
2022/11/08 14:45:13;;;;;;;1.37;1.10;;;;;;;;;;5073567;28;20445;-66
2022/11/08 14:47:41;;;;;;;2.70;1.50;;;;;;;;;;5074104;28;20440;-65
2022/11/08 14:50:15;;;;;;;2.70;1.47;;;;;;;;;;5073667;28;20529;-66
2022/11/08 14:52:44;;;;;;;2.07;1.60;;;;;;;;;;5073669;28;20484;-66
2022/11/08 14:55:11;;;;;;;2.73;2.20;;;;;;;;;;5073710;28;20437;-66
2022/11/08 14:57:41;;;;;;;4.27;1.53;;;;;;;;;;5074340;28;20451;-67
2022/11/08 15:00:15;;;;;;;2.67;1.60;;;;;;;;;;5073874;28;20444;-67
2022/11/08 15:02:43;;;;;;;2.07;1.70;;;;;;;;;;5073591;28;20460;-66
2022/11/08 15:05:25;;;;;;;4.70;1.37;;;;;;;;;;5073823;28;20452;-66
2022/11/08 15:07:52;;;;;;;2.03;1.40;;;;;;;;;;5075976;28;20455;-67
2022/11/08 15:10:20;;;;;;;4.60;2.07;;;;;;;;;;5073896;28;20939;-66
2022/11/08 15:12:48;;;;;;;2.60;1.80;;;;;;;;;;5075035;28;20865;-67
2022/11/08 15:15:19;;;;;;;2.67;1.57;;;;;;;;;;5074619;28;20790;-68
2022/11/08 15:17:46;;;;;;;2.07;1.20;;;;;;;;;;5074305;28;20435;-66
2022/11/08 15:20:19;;;;;;;4.23;1.80;;;;;;;;;;5074226;28;20529;-67